sensor_id;sensor_type;location;lat;lon;timestamp;temperature;humidity
28761;DHT22;15917;50.014;8.352;2024-01-06T00:00:57;5.50;99.90
28761;DHT22;15917;50.014;8.352;2024-01-06T00:03:22;5.60;99.90
28761;DHT22;15917;50.014;8.352;2024-01-06T00:05:48;5.60;99.90
28761;DHT22;15917;50.014;8.352;2024-01-06T00:08:13;5.60;99.90
28761;DHT22;15917;50.014;8.352;2024-01-06T00:10:39;5.60;99.90
28761;DHT22;15917;50.014;8.352;2024-01-06T00:13:04;5.70;99.90
28761;DHT22;15917;50.014;8.352;2024-01-06T00:15:30;5.70;99.90
28761;DHT22;15917;50.014;8.352;2024-01-06T00:17:56;5.70;99.90
28761;DHT22;15917;50.014;8.352;2024-01-06T00:20:21;5.70;99.90
28761;DHT22;15917;50.014;8.352;2024-01-06T00:22:47;5.70;99.90
28761;DHT22;15917;50.014;8.352;2024-01-06T00:25:12;5.70;99.90
28761;DHT22;15917;50.014;8.352;2024-01-06T00:27:38;5.70;99.90
28761;DHT22;15917;50.014;8.352;2024-01-06T00:30:05;5.70;99.90
28761;DHT22;15917;50.014;8.352;2024-01-06T00:32:30;5.60;99.90
28761;DHT22;15917;50.014;8.352;2024-01-06T00:34:56;5.60;99.90
28761;DHT22;15917;50.014;8.352;2024-01-06T00:37:21;5.60;99.90
28761;DHT22;15917;50.014;8.352;2024-01-06T00:39:47;5.50;99.90
28761;DHT22;15917;50.014;8.352;2024-01-06T00:42:13;5.60;99.90
28761;DHT22;15917;50.014;8.352;2024-01-06T00:44:38;5.60;99.90
28761;DHT22;15917;50.014;8.352;2024-01-06T00:47:04;5.60;99.90
28761;DHT22;15917;50.014;8.352;2024-01-06T00:49:29;5.60;99.90
28761;DHT22;15917;50.014;8.352;2024-01-06T00:51:55;5.60;99.90
28761;DHT22;15917;50.014;8.352;2024-01-06T00:54:21;5.60;99.90
28761;DHT22;15917;50.014;8.352;2024-01-06T00:56:46;5.60;99.90
28761;DHT22;15917;50.014;8.352;2024-01-06T00:59:12;5.60;99.90
28761;DHT22;15917;50.014;8.352;2024-01-06T01:01:37;5.60;99.90
28761;DHT22;15917;50.014;8.352;2024-01-06T01:04:03;5.60;99.90
28761;DHT22;15917;50.014;8.352;2024-01-06T01:06:29;5.60;99.90
28761;DHT22;15917;50.014;8.352;2024-01-06T01:08:54;5.60;99.90
28761;DHT22;15917;50.014;8.352;2024-01-06T01:11:20;5.60;99.90
28761;DHT22;15917;50.014;8.352;2024-01-06T01:13:46;5.70;99.90
28761;DHT22;15917;50.014;8.352;2024-01-06T01:16:11;5.70;99.90
28761;DHT22;15917;50.014;8.352;2024-01-06T01:18:37;5.70;99.90
28761;DHT22;15917;50.014;8.352;2024-01-06T01:21:02;5.70;99.90
28761;DHT22;15917;50.014;8.352;2024-01-06T01:23:28;5.70;99.90
28761;DHT22;15917;50.014;8.352;2024-01-06T01:25:54;5.70;99.90
28761;DHT22;15917;50.014;8.352;2024-01-06T01:28:20;5.70;99.90
28761;DHT22;15917;50.014;8.352;2024-01-06T01:30:46;5.80;99.90
28761;DHT22;15917;50.014;8.352;2024-01-06T01:33:11;5.80;99.90
28761;DHT22;15917;50.014;8.352;2024-01-06T01:35:37;5.80;99.90
28761;DHT22;15917;50.014;8.352;2024-01-06T01:38:02;5.80;99.90
28761;DHT22;15917;50.014;8.352;2024-01-06T01:40:28;5.80;99.90
28761;DHT22;15917;50.014;8.352;2024-01-06T01:42:54;5.80;99.90
28761;DHT22;15917;50.014;8.352;2024-01-06T01:45:19;5.80;99.90
28761;DHT22;15917;50.014;8.352;2024-01-06T01:47:45;5.80;99.90
28761;DHT22;15917;50.014;8.352;2024-01-06T01:50:12;5.80;99.90
28761;DHT22;15917;50.014;8.352;2024-01-06T01:52:40;5.80;99.90
28761;DHT22;15917;50.014;8.352;2024-01-06T01:55:06;5.80;99.90
28761;DHT22;15917;50.014;8.352;2024-01-06T01:57:32;5.80;99.90
28761;DHT22;15917;50.014;8.352;2024-01-06T01:59:57;5.80;99.90
28761;DHT22;15917;50.014;8.352;2024-01-06T02:02:24;5.70;99.90
28761;DHT22;15917;50.014;8.352;2024-01-06T02:04:50;5.70;99.90
28761;DHT22;15917;50.014;8.352;2024-01-06T02:07:16;5.60;99.90
28761;DHT22;15917;50.014;8.352;2024-01-06T02:09:42;5.60;99.90
28761;DHT22;15917;50.014;8.352;2024-01-06T02:12:07;5.60;99.90
28761;DHT22;15917;50.014;8.352;2024-01-06T02:14:33;5.70;99.90
28761;DHT22;15917;50.014;8.352;2024-01-06T02:16:59;5.60;99.90
28761;DHT22;15917;50.014;8.352;2024-01-06T02:19:24;5.60;99.90
28761;DHT22;15917;50.014;8.352;2024-01-06T02:21:52;5.60;99.90
28761;DHT22;15917;50.014;8.352;2024-01-06T02:24:19;5.50;99.90
28761;DHT22;15917;50.014;8.352;2024-01-06T02:26:44;5.50;99.90
28761;DHT22;15917;50.014;8.352;2024-01-06T02:29:10;5.60;99.90
28761;DHT22;15917;50.014;8.352;2024-01-06T02:31:35;5.60;99.90
28761;DHT22;15917;50.014;8.352;2024-01-06T02:34:01;5.70;99.90
28761;DHT22;15917;50.014;8.352;2024-01-06T02:36:27;5.80;99.90
28761;DHT22;15917;50.014;8.352;2024-01-06T02:38:52;5.90;99.90
28761;DHT22;15917;50.014;8.352;2024-01-06T02:41:18;5.90;99.90
28761;DHT22;15917;50.014;8.352;2024-01-06T02:43:43;6.00;99.90
28761;DHT22;15917;50.014;8.352;2024-01-06T02:46:09;5.90;99.90
28761;DHT22;15917;50.014;8.352;2024-01-06T02:48:34;6.00;99.90
28761;DHT22;15917;50.014;8.352;2024-01-06T02:51:00;6.00;99.90
28761;DHT22;15917;50.014;8.352;2024-01-06T02:53:25;5.90;99.90
28761;DHT22;15917;50.014;8.352;2024-01-06T02:55:51;5.90;99.90
28761;DHT22;15917;50.014;8.352;2024-01-06T02:58:17;6.00;99.90
28761;DHT22;15917;50.014;8.352;2024-01-06T03:00:42;6.00;99.90
28761;DHT22;15917;50.014;8.352;2024-01-06T03:03:08;5.90;99.90
28761;DHT22;15917;50.014;8.352;2024-01-06T03:05:33;5.90;99.90
28761;DHT22;15917;50.014;8.352;2024-01-06T03:07:59;5.90;99.90
28761;DHT22;15917;50.014;8.352;2024-01-06T03:10:25;5.90;99.90
28761;DHT22;15917;50.014;8.352;2024-01-06T03:12:51;6.00;99.90
28761;DHT22;15917;50.014;8.352;2024-01-06T03:15:16;6.00;99.90
28761;DHT22;15917;50.014;8.352;2024-01-06T03:17:42;6.00;99.90
28761;DHT22;15917;50.014;8.352;2024-01-06T03:20:08;6.00;99.90
28761;DHT22;15917;50.014;8.352;2024-01-06T03:22:34;6.00;99.90
28761;DHT22;15917;50.014;8.352;2024-01-06T03:25:00;6.00;99.90
28761;DHT22;15917;50.014;8.352;2024-01-06T03:27:25;6.00;99.90
28761;DHT22;15917;50.014;8.352;2024-01-06T03:29:51;6.00;99.90
28761;DHT22;15917;50.014;8.352;2024-01-06T03:32:20;5.90;99.90
28761;DHT22;15917;50.014;8.352;2024-01-06T03:34:46;5.90;99.90
28761;DHT22;15917;50.014;8.352;2024-01-06T03:37:11;6.00;99.90
28761;DHT22;15917;50.014;8.352;2024-01-06T03:39:43;6.00;99.90
28761;DHT22;15917;50.014;8.352;2024-01-06T03:42:08;6.00;99.90
28761;DHT22;15917;50.014;8.352;2024-01-06T03:44:34;6.10;99.90
28761;DHT22;15917;50.014;8.352;2024-01-06T03:47:00;6.10;99.90
28761;DHT22;15917;50.014;8.352;2024-01-06T03:49:26;6.10;99.90
28761;DHT22;15917;50.014;8.352;2024-01-06T03:51:51;6.00;99.90
28761;DHT22;15917;50.014;8.352;2024-01-06T03:54:17;6.10;99.90
28761;DHT22;15917;50.014;8.352;2024-01-06T03:56:43;6.00;99.90
28761;DHT22;15917;50.014;8.352;2024-01-06T03:59:08;6.00;99.90
28761;DHT22;15917;50.014;8.352;2024-01-06T04:01:34;6.00;99.90
28761;DHT22;15917;50.014;8.352;2024-01-06T04:04:05;6.10;99.90
28761;DHT22;15917;50.014;8.352;2024-01-06T04:06:30;6.10;99.90
28761;DHT22;15917;50.014;8.352;2024-01-06T04:08:59;6.10;99.90
28761;DHT22;15917;50.014;8.352;2024-01-06T04:11:25;6.10;99.90
28761;DHT22;15917;50.014;8.352;2024-01-06T04:13:50;6.10;99.90
28761;DHT22;15917;50.014;8.352;2024-01-06T04:16:16;6.10;99.90
28761;DHT22;15917;50.014;8.352;2024-01-06T04:18:42;6.10;99.90
28761;DHT22;15917;50.014;8.352;2024-01-06T04:21:07;6.10;99.90
28761;DHT22;15917;50.014;8.352;2024-01-06T04:23:34;6.10;99.90
28761;DHT22;15917;50.014;8.352;2024-01-06T04:26:00;6.10;99.90
28761;DHT22;15917;50.014;8.352;2024-01-06T04:28:27;6.10;99.90
28761;DHT22;15917;50.014;8.352;2024-01-06T04:30:53;6.20;99.90
28761;DHT22;15917;50.014;8.352;2024-01-06T04:33:19;6.20;99.90
28761;DHT22;15917;50.014;8.352;2024-01-06T04:35:44;6.20;99.90
28761;DHT22;15917;50.014;8.352;2024-01-06T04:38:10;6.20;99.90
28761;DHT22;15917;50.014;8.352;2024-01-06T04:40:35;6.20;99.90
28761;DHT22;15917;50.014;8.352;2024-01-06T04:43:01;6.10;99.90
28761;DHT22;15917;50.014;8.352;2024-01-06T04:45:27;6.20;99.90
28761;DHT22;15917;50.014;8.352;2024-01-06T04:47:52;6.20;99.90
28761;DHT22;15917;50.014;8.352;2024-01-06T04:50:18;6.20;99.90
28761;DHT22;15917;50.014;8.352;2024-01-06T04:52:43;6.20;99.90
28761;DHT22;15917;50.014;8.352;2024-01-06T04:55:09;6.20;99.90
28761;DHT22;15917;50.014;8.352;2024-01-06T04:57:36;6.20;99.90
28761;DHT22;15917;50.014;8.352;2024-01-06T05:00:02;6.20;99.90
28761;DHT22;15917;50.014;8.352;2024-01-06T05:02:28;6.20;99.90
28761;DHT22;15917;50.014;8.352;2024-01-06T05:04:54;6.20;99.90
28761;DHT22;15917;50.014;8.352;2024-01-06T05:07:20;6.20;99.90
28761;DHT22;15917;50.014;8.352;2024-01-06T05:09:45;6.20;99.90
28761;DHT22;15917;50.014;8.352;2024-01-06T05:12:11;6.20;99.90
28761;DHT22;15917;50.014;8.352;2024-01-06T05:14:36;6.10;99.90
28761;DHT22;15917;50.014;8.352;2024-01-06T05:17:02;6.20;99.90
28761;DHT22;15917;50.014;8.352;2024-01-06T05:19:28;6.20;99.90
28761;DHT22;15917;50.014;8.352;2024-01-06T05:21:53;6.20;99.90
28761;DHT22;15917;50.014;8.352;2024-01-06T05:24:19;6.20;99.90
28761;DHT22;15917;50.014;8.352;2024-01-06T05:26:45;6.20;99.90
28761;DHT22;15917;50.014;8.352;2024-01-06T05:29:10;6.20;99.90
28761;DHT22;15917;50.014;8.352;2024-01-06T05:31:36;6.20;99.90
28761;DHT22;15917;50.014;8.352;2024-01-06T05:34:02;6.20;99.90
28761;DHT22;15917;50.014;8.352;2024-01-06T05:36:27;6.20;99.90
28761;DHT22;15917;50.014;8.352;2024-01-06T05:38:53;6.20;99.90
28761;DHT22;15917;50.014;8.352;2024-01-06T05:41:18;6.20;99.90
28761;DHT22;15917;50.014;8.352;2024-01-06T05:43:44;6.20;99.90
28761;DHT22;15917;50.014;8.352;2024-01-06T05:46:09;6.20;99.90
28761;DHT22;15917;50.014;8.352;2024-01-06T05:48:36;6.20;99.90
28761;DHT22;15917;50.014;8.352;2024-01-06T05:51:04;6.10;99.90
28761;DHT22;15917;50.014;8.352;2024-01-06T05:53:31;6.10;99.90
28761;DHT22;15917;50.014;8.352;2024-01-06T05:55:56;6.10;99.90
28761;DHT22;15917;50.014;8.352;2024-01-06T05:58:22;6.10;99.90
28761;DHT22;15917;50.014;8.352;2024-01-06T06:00:48;6.10;99.90
28761;DHT22;15917;50.014;8.352;2024-01-06T06:03:14;6.10;99.90
28761;DHT22;15917;50.014;8.352;2024-01-06T06:05:39;6.20;99.90
28761;DHT22;15917;50.014;8.352;2024-01-06T06:08:05;6.20;99.90
28761;DHT22;15917;50.014;8.352;2024-01-06T06:10:30;6.30;99.90
28761;DHT22;15917;50.014;8.352;2024-01-06T06:13:09;6.30;99.90
28761;DHT22;15917;50.014;8.352;2024-01-06T06:15:36;6.30;99.90
28761;DHT22;15917;50.014;8.352;2024-01-06T06:18:02;6.40;99.90
28761;DHT22;15917;50.014;8.352;2024-01-06T06:20:27;6.30;99.90
28761;DHT22;15917;50.014;8.352;2024-01-06T06:22:53;6.40;99.90
28761;DHT22;15917;50.014;8.352;2024-01-06T06:25:19;6.40;99.90
28761;DHT22;15917;50.014;8.352;2024-01-06T06:27:44;6.40;99.90
28761;DHT22;15917;50.014;8.352;2024-01-06T06:30:10;6.40;99.90
28761;DHT22;15917;50.014;8.352;2024-01-06T06:32:36;6.40;99.90
28761;DHT22;15917;50.014;8.352;2024-01-06T06:35:01;6.40;99.90
28761;DHT22;15917;50.014;8.352;2024-01-06T06:37:27;6.40;99.90
28761;DHT22;15917;50.014;8.352;2024-01-06T06:39:52;6.40;99.90
28761;DHT22;15917;50.014;8.352;2024-01-06T06:42:18;6.30;99.90
28761;DHT22;15917;50.014;8.352;2024-01-06T06:44:44;6.30;99.90
28761;DHT22;15917;50.014;8.352;2024-01-06T06:47:09;6.30;99.90
28761;DHT22;15917;50.014;8.352;2024-01-06T06:49:35;6.40;99.90
28761;DHT22;15917;50.014;8.352;2024-01-06T06:52:00;6.40;99.90
28761;DHT22;15917;50.014;8.352;2024-01-06T06:54:26;6.40;99.90
28761;DHT22;15917;50.014;8.352;2024-01-06T06:56:51;6.40;99.90
28761;DHT22;15917;50.014;8.352;2024-01-06T06:59:17;6.40;99.90
28761;DHT22;15917;50.014;8.352;2024-01-06T07:01:43;6.40;99.90
28761;DHT22;15917;50.014;8.352;2024-01-06T07:04:08;6.50;99.90
28761;DHT22;15917;50.014;8.352;2024-01-06T07:06:34;6.40;99.90
28761;DHT22;15917;50.014;8.352;2024-01-06T07:08:59;6.40;99.90
28761;DHT22;15917;50.014;8.352;2024-01-06T07:11:25;6.40;99.90
28761;DHT22;15917;50.014;8.352;2024-01-06T07:13:51;6.40;99.90
28761;DHT22;15917;50.014;8.352;2024-01-06T07:16:16;6.30;99.90
28761;DHT22;15917;50.014;8.352;2024-01-06T07:18:42;6.30;99.90
28761;DHT22;15917;50.014;8.352;2024-01-06T07:21:07;6.30;99.90
28761;DHT22;15917;50.014;8.352;2024-01-06T07:23:33;6.30;99.90
28761;DHT22;15917;50.014;8.352;2024-01-06T07:25:59;6.20;99.90
28761;DHT22;15917;50.014;8.352;2024-01-06T07:28:26;6.30;99.90
28761;DHT22;15917;50.014;8.352;2024-01-06T07:30:52;6.20;99.90
28761;DHT22;15917;50.014;8.352;2024-01-06T07:33:17;6.20;99.90
28761;DHT22;15917;50.014;8.352;2024-01-06T07:35:43;6.20;99.90
28761;DHT22;15917;50.014;8.352;2024-01-06T07:38:09;6.20;99.90
28761;DHT22;15917;50.014;8.352;2024-01-06T07:40:36;6.20;99.90
28761;DHT22;15917;50.014;8.352;2024-01-06T07:43:02;6.20;99.90
28761;DHT22;15917;50.014;8.352;2024-01-06T07:45:28;6.30;99.90
28761;DHT22;15917;50.014;8.352;2024-01-06T07:47:53;6.20;99.90
28761;DHT22;15917;50.014;8.352;2024-01-06T07:50:19;6.30;99.90
28761;DHT22;15917;50.014;8.352;2024-01-06T07:52:45;6.20;99.90
28761;DHT22;15917;50.014;8.352;2024-01-06T07:55:10;6.20;99.90
28761;DHT22;15917;50.014;8.352;2024-01-06T07:57:36;6.20;99.90
28761;DHT22;15917;50.014;8.352;2024-01-06T08:00:02;6.10;99.90
28761;DHT22;15917;50.014;8.352;2024-01-06T08:02:37;6.20;99.90
28761;DHT22;15917;50.014;8.352;2024-01-06T08:05:03;6.10;99.90
28761;DHT22;15917;50.014;8.352;2024-01-06T08:07:29;6.10;99.90
28761;DHT22;15917;50.014;8.352;2024-01-06T08:09:54;6.20;99.90
28761;DHT22;15917;50.014;8.352;2024-01-06T08:12:20;6.20;99.90
28761;DHT22;15917;50.014;8.352;2024-01-06T08:14:45;6.20;99.90
28761;DHT22;15917;50.014;8.352;2024-01-06T08:17:11;6.20;99.90
28761;DHT22;15917;50.014;8.352;2024-01-06T08:19:36;6.20;99.90
28761;DHT22;15917;50.014;8.352;2024-01-06T08:22:02;6.30;99.90
28761;DHT22;15917;50.014;8.352;2024-01-06T08:24:28;6.30;99.90
28761;DHT22;15917;50.014;8.352;2024-01-06T08:26:53;6.40;99.90
28761;DHT22;15917;50.014;8.352;2024-01-06T08:29:19;6.40;99.90
28761;DHT22;15917;50.014;8.352;2024-01-06T08:31:45;6.40;99.90
28761;DHT22;15917;50.014;8.352;2024-01-06T08:34:11;6.50;99.90
28761;DHT22;15917;50.014;8.352;2024-01-06T08:36:36;6.50;99.90
28761;DHT22;15917;50.014;8.352;2024-01-06T08:39:02;6.60;99.90
28761;DHT22;15917;50.014;8.352;2024-01-06T08:41:28;6.60;99.90
28761;DHT22;15917;50.014;8.352;2024-01-06T08:43:54;6.70;99.90
28761;DHT22;15917;50.014;8.352;2024-01-06T08:46:19;6.60;99.90
28761;DHT22;15917;50.014;8.352;2024-01-06T08:48:45;6.70;99.90
28761;DHT22;15917;50.014;8.352;2024-01-06T08:51:11;6.60;99.90
28761;DHT22;15917;50.014;8.352;2024-01-06T08:53:36;6.50;99.90
28761;DHT22;15917;50.014;8.352;2024-01-06T08:56:02;6.50;99.90
28761;DHT22;15917;50.014;8.352;2024-01-06T08:58:28;6.60;99.90
28761;DHT22;15917;50.014;8.352;2024-01-06T09:00:53;6.60;99.90
28761;DHT22;15917;50.014;8.352;2024-01-06T09:03:19;6.60;99.90
28761;DHT22;15917;50.014;8.352;2024-01-06T09:05:51;6.70;99.90
28761;DHT22;15917;50.014;8.352;2024-01-06T09:08:17;6.60;99.90
28761;DHT22;15917;50.014;8.352;2024-01-06T09:10:43;6.60;99.90
28761;DHT22;15917;50.014;8.352;2024-01-06T09:13:09;6.50;99.90
28761;DHT22;15917;50.014;8.352;2024-01-06T09:15:35;6.50;99.90
28761;DHT22;15917;50.014;8.352;2024-01-06T09:18:01;6.40;99.90
28761;DHT22;15917;50.014;8.352;2024-01-06T09:20:28;6.40;99.90
28761;DHT22;15917;50.014;8.352;2024-01-06T09:22:54;6.40;99.90
28761;DHT22;15917;50.014;8.352;2024-01-06T09:25:19;6.40;99.90
28761;DHT22;15917;50.014;8.352;2024-01-06T09:27:48;6.40;99.90
28761;DHT22;15917;50.014;8.352;2024-01-06T09:30:14;6.40;99.90
28761;DHT22;15917;50.014;8.352;2024-01-06T09:32:39;6.40;99.90
28761;DHT22;15917;50.014;8.352;2024-01-06T09:35:05;6.40;99.90
28761;DHT22;15917;50.014;8.352;2024-01-06T09:37:31;6.40;99.90
28761;DHT22;15917;50.014;8.352;2024-01-06T09:39:56;6.40;99.90
28761;DHT22;15917;50.014;8.352;2024-01-06T09:42:22;6.40;99.90
28761;DHT22;15917;50.014;8.352;2024-01-06T09:44:48;6.40;99.90
28761;DHT22;15917;50.014;8.352;2024-01-06T09:47:14;6.40;99.90
28761;DHT22;15917;50.014;8.352;2024-01-06T09:49:48;6.40;99.90
28761;DHT22;15917;50.014;8.352;2024-01-06T09:52:14;6.40;99.90
28761;DHT22;15917;50.014;8.352;2024-01-06T09:54:46;6.50;99.90
28761;DHT22;15917;50.014;8.352;2024-01-06T09:57:14;6.50;99.90
28761;DHT22;15917;50.014;8.352;2024-01-06T09:59:40;6.50;99.90
28761;DHT22;15917;50.014;8.352;2024-01-06T10:02:07;6.60;99.90
28761;DHT22;15917;50.014;8.352;2024-01-06T10:04:33;6.60;99.90
28761;DHT22;15917;50.014;8.352;2024-01-06T10:06:59;6.60;99.90
28761;DHT22;15917;50.014;8.352;2024-01-06T10:09:28;6.60;99.90
28761;DHT22;15917;50.014;8.352;2024-01-06T10:11:57;6.70;99.90
28761;DHT22;15917;50.014;8.352;2024-01-06T10:14:24;6.70;99.90
28761;DHT22;15917;50.014;8.352;2024-01-06T10:16:51;6.70;99.90
28761;DHT22;15917;50.014;8.352;2024-01-06T10:19:16;6.80;99.90
28761;DHT22;15917;50.014;8.352;2024-01-06T10:21:42;6.80;99.90
28761;DHT22;15917;50.014;8.352;2024-01-06T10:24:09;6.90;99.90
28761;DHT22;15917;50.014;8.352;2024-01-06T10:26:35;6.90;99.90
28761;DHT22;15917;50.014;8.352;2024-01-06T10:29:01;6.90;99.90
28761;DHT22;15917;50.014;8.352;2024-01-06T10:31:29;6.90;99.90
28761;DHT22;15917;50.014;8.352;2024-01-06T10:33:54;6.90;99.90
28761;DHT22;15917;50.014;8.352;2024-01-06T10:36:23;6.90;99.90
28761;DHT22;15917;50.014;8.352;2024-01-06T10:38:49;6.90;99.90
28761;DHT22;15917;50.014;8.352;2024-01-06T10:41:16;6.90;99.90
28761;DHT22;15917;50.014;8.352;2024-01-06T10:43:42;7.00;99.90
28761;DHT22;15917;50.014;8.352;2024-01-06T10:46:10;7.00;99.90
28761;DHT22;15917;50.014;8.352;2024-01-06T10:48:37;7.00;99.90
28761;DHT22;15917;50.014;8.352;2024-01-06T10:51:10;7.00;99.90
28761;DHT22;15917;50.014;8.352;2024-01-06T10:53:36;7.10;99.90
28761;DHT22;15917;50.014;8.352;2024-01-06T10:56:03;7.10;99.90
28761;DHT22;15917;50.014;8.352;2024-01-06T10:58:30;7.10;99.90
28761;DHT22;15917;50.014;8.352;2024-01-06T11:00:57;7.10;99.90
28761;DHT22;15917;50.014;8.352;2024-01-06T11:03:24;7.20;99.90
28761;DHT22;15917;50.014;8.352;2024-01-06T11:05:49;7.20;99.90
28761;DHT22;15917;50.014;8.352;2024-01-06T11:08:17;7.30;99.90
28761;DHT22;15917;50.014;8.352;2024-01-06T11:10:43;7.40;99.90
28761;DHT22;15917;50.014;8.352;2024-01-06T11:15:53;7.50;99.90
28761;DHT22;15917;50.014;8.352;2024-01-06T11:18:38;7.60;99.90
28761;DHT22;15917;50.014;8.352;2024-01-06T11:23:38;7.60;99.90
28761;DHT22;15917;50.014;8.352;2024-01-06T11:26:03;7.70;99.90
28761;DHT22;15917;50.014;8.352;2024-01-06T11:28:31;7.80;99.90
28761;DHT22;15917;50.014;8.352;2024-01-06T11:31:09;7.80;99.90
28761;DHT22;15917;50.014;8.352;2024-01-06T11:33:42;7.90;99.90
28761;DHT22;15917;50.014;8.352;2024-01-06T11:36:11;7.90;99.90
28761;DHT22;15917;50.014;8.352;2024-01-06T11:38:40;7.90;99.90
28761;DHT22;15917;50.014;8.352;2024-01-06T11:41:08;8.10;99.90
28761;DHT22;15917;50.014;8.352;2024-01-06T11:43:38;8.10;99.90
28761;DHT22;15917;50.014;8.352;2024-01-06T11:46:06;8.20;99.90
28761;DHT22;15917;50.014;8.352;2024-01-06T11:48:32;8.30;99.90
28761;DHT22;15917;50.014;8.352;2024-01-06T11:50:58;8.30;99.90
28761;DHT22;15917;50.014;8.352;2024-01-06T11:53:26;8.30;99.90
28761;DHT22;15917;50.014;8.352;2024-01-06T11:55:53;8.40;99.90
28761;DHT22;15917;50.014;8.352;2024-01-06T11:58:18;8.60;99.90
28761;DHT22;15917;50.014;8.352;2024-01-06T12:00:44;8.70;99.90
28761;DHT22;15917;50.014;8.352;2024-01-06T12:03:19;8.70;99.90
28761;DHT22;15917;50.014;8.352;2024-01-06T12:05:45;8.70;99.90
28761;DHT22;15917;50.014;8.352;2024-01-06T12:08:11;8.70;99.90
28761;DHT22;15917;50.014;8.352;2024-01-06T12:10:37;8.70;99.90
28761;DHT22;15917;50.014;8.352;2024-01-06T12:13:06;8.60;99.90
28761;DHT22;15917;50.014;8.352;2024-01-06T12:15:36;8.60;99.90
28761;DHT22;15917;50.014;8.352;2024-01-06T12:18:05;8.60;99.90
28761;DHT22;15917;50.014;8.352;2024-01-06T12:20:31;8.60;99.90
28761;DHT22;15917;50.014;8.352;2024-01-06T12:22:57;8.50;99.90
28761;DHT22;15917;50.014;8.352;2024-01-06T12:25:24;8.50;99.90
28761;DHT22;15917;50.014;8.352;2024-01-06T12:27:51;8.40;99.90
28761;DHT22;15917;50.014;8.352;2024-01-06T12:30:19;8.40;99.90
28761;DHT22;15917;50.014;8.352;2024-01-06T12:32:47;8.40;99.90
28761;DHT22;15917;50.014;8.352;2024-01-06T12:35:15;8.40;99.90
28761;DHT22;15917;50.014;8.352;2024-01-06T12:37:43;8.30;99.90
28761;DHT22;15917;50.014;8.352;2024-01-06T12:40:11;8.30;99.90
28761;DHT22;15917;50.014;8.352;2024-01-06T12:42:38;8.30;99.90
28761;DHT22;15917;50.014;8.352;2024-01-06T12:45:05;8.30;99.90
28761;DHT22;15917;50.014;8.352;2024-01-06T12:47:31;8.30;99.90
28761;DHT22;15917;50.014;8.352;2024-01-06T12:49:57;8.30;99.90
28761;DHT22;15917;50.014;8.352;2024-01-06T12:52:23;8.30;99.90
28761;DHT22;15917;50.014;8.352;2024-01-06T12:54:49;8.20;99.90
28761;DHT22;15917;50.014;8.352;2024-01-06T12:57:15;8.20;99.90
28761;DHT22;15917;50.014;8.352;2024-01-06T12:59:41;8.20;99.90
28761;DHT22;15917;50.014;8.352;2024-01-06T13:02:06;8.20;99.90
28761;DHT22;15917;50.014;8.352;2024-01-06T13:04:32;8.20;99.90
28761;DHT22;15917;50.014;8.352;2024-01-06T13:06:58;8.10;99.90
28761;DHT22;15917;50.014;8.352;2024-01-06T13:09:23;8.10;99.90
28761;DHT22;15917;50.014;8.352;2024-01-06T13:11:50;8.00;99.90
28761;DHT22;15917;50.014;8.352;2024-01-06T13:14:17;7.90;99.90
28761;DHT22;15917;50.014;8.352;2024-01-06T13:16:43;8.50;99.90
28761;DHT22;15917;50.014;8.352;2024-01-06T13:19:08;8.70;99.90
28761;DHT22;15917;50.014;8.352;2024-01-06T13:21:34;9.50;99.90
28761;DHT22;15917;50.014;8.352;2024-01-06T13:24:01;10.70;99.90
28761;DHT22;15917;50.014;8.352;2024-01-06T13:26:29;11.30;99.90
28761;DHT22;15917;50.014;8.352;2024-01-06T13:28:55;10.70;99.90
28761;DHT22;15917;50.014;8.352;2024-01-06T13:31:21;10.10;99.90
28761;DHT22;15917;50.014;8.352;2024-01-06T13:33:46;9.50;99.90
28761;DHT22;15917;50.014;8.352;2024-01-06T13:36:12;9.20;99.90
28761;DHT22;15917;50.014;8.352;2024-01-06T13:38:38;8.80;99.90
28761;DHT22;15917;50.014;8.352;2024-01-06T13:41:04;8.60;99.90
28761;DHT22;15917;50.014;8.352;2024-01-06T13:43:30;8.50;99.90
28761;DHT22;15917;50.014;8.352;2024-01-06T13:45:57;8.40;99.90
28761;DHT22;15917;50.014;8.352;2024-01-06T13:48:23;8.30;99.90
28761;DHT22;15917;50.014;8.352;2024-01-06T13:50:49;8.20;99.90
28761;DHT22;15917;50.014;8.352;2024-01-06T13:53:15;8.10;99.90
28761;DHT22;15917;50.014;8.352;2024-01-06T13:55:41;8.00;99.90
28761;DHT22;15917;50.014;8.352;2024-01-06T13:58:07;7.90;99.90
28761;DHT22;15917;50.014;8.352;2024-01-06T14:00:35;9.20;99.90
28761;DHT22;15917;50.014;8.352;2024-01-06T14:03:01;10.40;99.90
28761;DHT22;15917;50.014;8.352;2024-01-06T14:05:27;9.90;99.90
28761;DHT22;15917;50.014;8.352;2024-01-06T14:07:53;9.50;99.90
28761;DHT22;15917;50.014;8.352;2024-01-06T14:10:19;9.10;99.90
28761;DHT22;15917;50.014;8.352;2024-01-06T14:12:44;8.60;99.90
28761;DHT22;15917;50.014;8.352;2024-01-06T14:15:10;8.40;99.90
28761;DHT22;15917;50.014;8.352;2024-01-06T14:17:36;8.60;99.90
28761;DHT22;15917;50.014;8.352;2024-01-06T14:20:02;8.80;99.90
28761;DHT22;15917;50.014;8.352;2024-01-06T14:22:27;8.50;99.90
28761;DHT22;15917;50.014;8.352;2024-01-06T14:24:53;8.10;99.90
28761;DHT22;15917;50.014;8.352;2024-01-06T14:27:19;7.90;99.90
28761;DHT22;15917;50.014;8.352;2024-01-06T14:29:45;7.70;99.90
28761;DHT22;15917;50.014;8.352;2024-01-06T14:32:12;7.50;99.90
28761;DHT22;15917;50.014;8.352;2024-01-06T14:34:38;7.30;99.90
28761;DHT22;15917;50.014;8.352;2024-01-06T14:37:05;7.20;99.90
28761;DHT22;15917;50.014;8.352;2024-01-06T14:39:30;7.10;99.90
28761;DHT22;15917;50.014;8.352;2024-01-06T14:41:56;7.10;99.90
28761;DHT22;15917;50.014;8.352;2024-01-06T14:44:22;7.10;99.90
28761;DHT22;15917;50.014;8.352;2024-01-06T14:46:48;7.10;99.90
28761;DHT22;15917;50.014;8.352;2024-01-06T14:49:13;7.10;99.90
28761;DHT22;15917;50.014;8.352;2024-01-06T14:51:39;7.10;99.90
28761;DHT22;15917;50.014;8.352;2024-01-06T14:54:04;7.10;99.90
28761;DHT22;15917;50.014;8.352;2024-01-06T14:56:31;7.10;99.90
28761;DHT22;15917;50.014;8.352;2024-01-06T14:58:57;7.10;99.90
28761;DHT22;15917;50.014;8.352;2024-01-06T15:01:22;7.10;99.90
28761;DHT22;15917;50.014;8.352;2024-01-06T15:03:48;7.10;99.90
28761;DHT22;15917;50.014;8.352;2024-01-06T15:06:13;7.10;99.90
28761;DHT22;15917;50.014;8.352;2024-01-06T15:08:39;7.10;99.90
28761;DHT22;15917;50.014;8.352;2024-01-06T15:11:04;7.00;99.90
28761;DHT22;15917;50.014;8.352;2024-01-06T15:13:32;7.10;99.90
28761;DHT22;15917;50.014;8.352;2024-01-06T15:15:57;7.00;99.90
28761;DHT22;15917;50.014;8.352;2024-01-06T15:18:23;7.00;99.90
28761;DHT22;15917;50.014;8.352;2024-01-06T15:20:49;7.00;99.90
28761;DHT22;15917;50.014;8.352;2024-01-06T15:23:15;6.90;99.90
28761;DHT22;15917;50.014;8.352;2024-01-06T15:25:44;6.90;99.90
28761;DHT22;15917;50.014;8.352;2024-01-06T15:28:10;6.90;99.90
28761;DHT22;15917;50.014;8.352;2024-01-06T15:30:35;6.90;99.90
28761;DHT22;15917;50.014;8.352;2024-01-06T15:33:01;6.90;99.90
28761;DHT22;15917;50.014;8.352;2024-01-06T15:35:27;6.90;99.90
28761;DHT22;15917;50.014;8.352;2024-01-06T15:37:52;6.90;99.90
28761;DHT22;15917;50.014;8.352;2024-01-06T15:40:18;6.80;99.90
28761;DHT22;15917;50.014;8.352;2024-01-06T15:42:43;6.90;99.90